Time;durP1;ratioP1;P1;durP2;ratioP2;P2;SDS_P1;SDS_P2;PMS_P1;PMS_P2;Temp;Humidity;BMP_temperature;BMP_pressure;BME280_temperature;BME280_humidity;BME280_pressure;Samples;Min_cycle;Max_cycle;Signal;HPM_P1;HPM_P2
2023/12/01 00:00:48;;;;;;;70.97;28.00;;;0.70;99.90;;;;;;7374359;19;20018;-58
2023/12/01 00:03:15;;;;;;;75.63;29.40;;;0.80;99.90;;;;;;7378928;19;20973;-58
2023/12/01 00:05:41;;;;;;;66.20;29.25;;;0.70;99.90;;;;;;7378521;19;20059;-58
2023/12/01 00:08:07;;;;;;;75.72;29.23;;;0.70;99.90;;;;;;7378690;19;20027;-58
2023/12/01 00:10:34;;;;;;;74.82;29.33;;;0.60;99.90;;;;;;7378644;19;20498;-58
2023/12/01 00:13:00;;;;;;;74.63;30.55;;;0.70;99.90;;;;;;7377305;19;20059;-58
2023/12/01 00:15:27;;;;;;;62.33;23.50;;;0.70;99.90;;;;;;7380025;19;20090;-58
2023/12/01 00:17:53;;;;;;;71.32;29.48;;;0.60;99.90;;;;;;7377678;19;20022;-57
2023/12/01 00:20:20;;;;;;;70.57;30.70;;;0.70;99.90;;;;;;7376957;19;20078;-58
2023/12/01 00:22:46;;;;;;;65.15;26.85;;;0.60;99.90;;;;;;7376515;19;20034;-59
2023/12/01 00:25:13;;;;;;;54.95;24.63;;;0.60;99.90;;;;;;7374856;19;20026;-61
2023/12/01 00:27:39;;;;;;;57.35;24.27;;;0.60;99.90;;;;;;7372852;19;20014;-58
2023/12/01 00:30:06;;;;;;;52.97;24.50;;;0.60;99.90;;;;;;7374829;19;20723;-58
2023/12/01 00:32:32;;;;;;;62.25;25.92;;;0.60;99.90;;;;;;7373395;19;20029;-58
2023/12/01 00:34:58;;;;;;;53.65;23.45;;;0.60;99.90;;;;;;7376815;19;20043;-58
2023/12/01 00:37:25;;;;;;;49.00;19.35;;;0.60;99.90;;;;;;7375351;19;20074;-57
2023/12/01 00:39:51;;;;;;;49.33;23.00;;;0.60;99.90;;;;;;7375733;19;20033;-58
2023/12/01 00:42:17;;;;;;;46.65;21.95;;;0.60;99.90;;;;;;7377143;19;20537;-57
2023/12/01 00:44:45;;;;;;;52.53;24.70;;;0.60;99.90;;;;;;7372514;19;20031;-58
2023/12/01 00:47:11;;;;;;;51.17;23.00;;;0.60;99.90;;;;;;7376927;19;20793;-58
2023/12/01 00:49:37;;;;;;;44.40;20.25;;;0.60;99.90;;;;;;7372472;19;20042;-59
2023/12/01 00:52:04;;;;;;;39.53;20.88;;;0.60;99.90;;;;;;7377899;19;20052;-59
2023/12/01 00:54:30;;;;;;;46.15;21.98;;;0.50;99.90;;;;;;7376267;19;20029;-59
2023/12/01 00:56:56;;;;;;;39.03;20.02;;;0.60;99.90;;;;;;7373209;19;20089;-59
2023/12/01 00:59:24;;;;;;;41.33;19.00;;;0.60;99.90;;;;;;7370774;19;20082;-59
2023/12/01 01:01:50;;;;;;;42.58;20.02;;;0.50;99.90;;;;;;7373829;19;20034;-59
2023/12/01 01:04:16;;;;;;;46.80;22.50;;;0.50;99.90;;;;;;7375770;19;20024;-59
2023/12/01 01:06:43;;;;;;;43.30;20.27;;;0.50;99.90;;;;;;7375421;19;20853;-60
2023/12/01 01:09:09;;;;;;;36.75;19.65;;;0.50;99.90;;;;;;7378016;19;20090;-59
2023/12/01 01:11:36;;;;;;;39.13;19.92;;;0.50;99.90;;;;;;7371567;19;20370;-60
2023/12/01 01:14:02;;;;;;;47.25;21.13;;;0.40;99.90;;;;;;7373511;19;20062;-59
2023/12/01 01:16:28;;;;;;;46.45;21.17;;;0.50;99.90;;;;;;7375568;19;20018;-59
2023/12/01 01:19:14;;;;;;;44.47;19.92;;;0.50;99.90;;;;;;7371248;19;20166;-59
2023/12/01 01:21:41;;;;;;;44.22;22.35;;;0.50;99.90;;;;;;7373726;19;20733;-59
2023/12/01 01:24:08;;;;;;;47.05;22.05;;;0.50;99.90;;;;;;7376120;19;20052;-60
2023/12/01 01:26:34;;;;;;;52.15;23.77;;;0.40;99.90;;;;;;7370032;19;20022;-60
2023/12/01 01:29:00;;;;;;;45.15;22.70;;;0.40;99.90;;;;;;7373169;19;20643;-59
2023/12/01 01:31:27;;;;;;;48.83;23.13;;;0.40;99.90;;;;;;7373879;19;20022;-59
2023/12/01 01:33:53;;;;;;;50.10;22.85;;;0.40;99.90;;;;;;7372529;19;20420;-59
2023/12/01 01:36:19;;;;;;;43.90;20.55;;;0.40;99.90;;;;;;7374207;19;20770;-59
2023/12/01 01:38:45;;;;;;;42.20;21.13;;;0.30;99.90;;;;;;7372511;19;20031;-60
2023/12/01 01:41:12;;;;;;;45.85;21.52;;;0.30;99.90;;;;;;7375264;19;20043;-59
2023/12/01 01:43:38;;;;;;;45.03;20.45;;;0.20;99.90;;;;;;7372564;19;20074;-59
2023/12/01 01:46:10;;;;;;;46.78;20.27;;;0.30;99.90;;;;;;7371150;19;20067;-59
2023/12/01 01:48:42;;;;;;;43.70;20.15;;;0.30;99.90;;;;;;7371744;19;20131;-58
2023/12/01 01:51:09;;;;;;;47.85;20.92;;;0.20;99.90;;;;;;7373771;19;20585;-58
2023/12/01 01:53:42;;;;;;;41.97;21.35;;;0.10;99.90;;;;;;7372873;19;20573;-58
2023/12/01 01:56:32;;;;;;;41.97;19.95;;;0.10;99.90;;;;;;7369067;19;20057;-61
2023/12/01 01:58:59;;;;;;;42.70;21.15;;;0.10;99.90;;;;;;7373281;19;20022;-61
2023/12/01 02:01:25;;;;;;;43.55;21.42;;;0.10;99.90;;;;;;7370674;19;20018;-61
2023/12/01 02:03:53;;;;;;;49.72;21.88;;;0.10;99.90;;;;;;7372182;19;20014;-61
2023/12/01 02:06:19;;;;;;;44.60;19.92;;;0.10;99.90;;;;;;7370848;19;20781;-61
2023/12/01 02:08:45;;;;;;;36.40;19.75;;;0.10;99.90;;;;;;7372889;19;20018;-61
2023/12/01 02:11:15;;;;;;;37.63;19.20;;;0.00;99.90;;;;;;7369073;19;20019;-61
2023/12/01 02:13:43;;;;;;;34.03;18.70;;;-0.10;99.90;;;;;;7374320;19;20010;-61
2023/12/01 02:16:09;;;;;;;32.05;17.95;;;-0.20;99.90;;;;;;7373056;19;20026;-61
2023/12/01 02:18:35;;;;;;;35.40;18.52;;;-0.20;99.90;;;;;;7373346;19;20074;-62
2023/12/01 02:21:02;;;;;;;37.42;19.75;;;-0.30;99.90;;;;;;7370982;19;20018;-62
2023/12/01 02:23:32;;;;;;;39.28;21.02;;;-0.30;99.90;;;;;;7374479;19;20086;-61
2023/12/01 02:25:58;;;;;;;37.67;19.83;;;-0.30;99.90;;;;;;7361098;19;20529;-61
2023/12/01 02:28:24;;;;;;;41.05;19.40;;;-0.40;99.90;;;;;;7370381;19;20160;-61
2023/12/01 02:30:53;;;;;;;37.78;18.70;;;-0.30;99.90;;;;;;7370192;19;20320;-61
2023/12/01 02:33:23;;;;;;;36.95;19.55;;;-0.20;99.90;;;;;;7369249;19;20037;-61
2023/12/01 02:35:52;;;;;;;39.00;21.38;;;-0.30;99.90;;;;;;7371573;19;20017;-61
2023/12/01 02:38:19;;;;;;;36.15;19.50;;;-0.20;99.90;;;;;;7367240;19;20399;-61
2023/12/01 02:40:49;;;;;;;42.83;21.30;;;-0.30;99.90;;;;;;7372975;19;20022;-61
2023/12/01 02:43:17;;;;;;;39.70;19.52;;;-0.30;99.90;;;;;;7367315;19;20473;-61
2023/12/01 02:45:44;;;;;;;36.58;18.92;;;-0.30;99.90;;;;;;7371191;19;20115;-61
2023/12/01 02:48:14;;;;;;;35.15;19.83;;;-0.30;99.90;;;;;;7367840;19;20026;-62
2023/12/01 02:51:00;;;;;;;36.08;19.88;;;-0.30;99.90;;;;;;7371907;19;20022;-61
2023/12/01 02:53:26;;;;;;;37.13;19.75;;;-0.40;99.90;;;;;;7371716;19;20018;-61
2023/12/01 02:55:52;;;;;;;39.72;21.25;;;-0.30;99.90;;;;;;7373105;19;20018;-61
2023/12/01 02:58:18;;;;;;;36.75;19.42;;;-0.40;99.90;;;;;;7369625;19;20533;-61
2023/12/01 03:00:45;;;;;;;34.58;18.83;;;-0.40;99.90;;;;;;7371791;19;20019;-61
2023/12/01 03:03:11;;;;;;;38.70;18.48;;;-0.40;99.90;;;;;;7371409;19;20577;-61
2023/12/01 03:05:38;;;;;;;38.90;19.50;;;-0.50;99.90;;;;;;7370747;19;20023;-61
2023/12/01 03:08:04;;;;;;;37.20;21.92;;;-0.40;99.90;;;;;;7369612;19;20018;-61
2023/12/01 03:10:30;;;;;;;42.13;22.02;;;-0.40;99.90;;;;;;7373415;19;20022;-61
2023/12/01 03:12:57;;;;;;;41.35;20.45;;;-0.40;99.90;;;;;;7369097;19;20018;-61
2023/12/01 03:15:24;;;;;;;34.17;19.75;;;-0.50;99.90;;;;;;7368099;19;20022;-61
2023/12/01 03:17:50;;;;;;;37.70;20.73;;;-0.60;99.90;;;;;;7372754;19;20031;-61
2023/12/01 03:20:16;;;;;;;38.85;22.73;;;-0.60;99.90;;;;;;7371481;19;20461;-61
2023/12/01 03:22:45;;;;;;;40.03;21.45;;;-0.60;99.90;;;;;;7375079;19;20896;-60
2023/12/01 03:25:13;;;;;;;38.90;21.55;;;-0.60;99.90;;;;;;7378241;19;20041;-61
2023/12/01 03:27:44;;;;;;;33.92;19.17;;;-0.70;99.90;;;;;;7375915;19;20070;-61
2023/12/01 03:30:30;;;;;;;33.30;18.42;;;-0.70;99.90;;;;;;7376055;19;20516;-61
2023/12/01 03:32:57;;;;;;;33.17;19.25;;;-0.70;99.90;;;;;;7374714;19;20053;-61
2023/12/01 03:35:24;;;;;;;37.42;20.70;;;-0.70;99.90;;;;;;7379474;19;20045;-61
2023/12/01 03:37:56;;;;;;;36.58;19.98;;;-0.80;99.90;;;;;;7380756;19;20022;-61
2023/12/01 03:40:25;;;;;;;31.95;18.58;;;-0.80;99.90;;;;;;7378999;19;20022;-61
2023/12/01 03:42:51;;;;;;;34.75;19.25;;;-0.90;99.90;;;;;;7378794;19;20026;-61
2023/12/01 03:45:18;;;;;;;36.97;19.60;;;-0.90;99.90;;;;;;7375337;19;20010;-61
2023/12/01 03:47:47;;;;;;;38.28;19.73;;;-1.00;99.90;;;;;;7375667;19;20020;-61
2023/12/01 03:50:14;;;;;;;36.53;18.73;;;-1.00;99.90;;;;;;7374740;19;20018;-61
2023/12/01 03:53:01;;;;;;;36.92;19.90;;;-1.10;99.90;;;;;;7376112;19;20023;-61
2023/12/01 03:55:27;;;;;;;36.53;20.27;;;-1.10;99.90;;;;;;7377208;19;20090;-61
2023/12/01 03:57:53;;;;;;;43.35;21.58;;;-1.10;99.90;;;;;;7374350;19;20011;-61
2023/12/01 04:00:21;;;;;;;46.45;23.33;;;-1.10;99.90;;;;;;7378158;19;20482;-61
2023/12/01 04:03:07;;;;;;;42.35;22.52;;;-1.10;99.90;;;;;;7377367;19;20019;-61
2023/12/01 04:05:54;;;;;;;42.92;21.83;;;-1.00;99.90;;;;;;7377718;19;20082;-61
2023/12/01 04:08:20;;;;;;;45.65;21.50;;;-1.00;99.90;;;;;;7375270;19;20015;-61
2023/12/01 04:10:47;;;;;;;43.70;20.63;;;-1.10;99.90;;;;;;7374852;19;20465;-61
2023/12/01 04:13:15;;;;;;;45.08;22.70;;;-1.00;99.90;;;;;;7378786;19;20019;-61
2023/12/01 04:15:42;;;;;;;48.88;23.58;;;-1.00;99.90;;;;;;7376357;19;20018;-61
2023/12/01 04:18:09;;;;;;;43.92;21.45;;;-1.00;99.90;;;;;;7373653;19;20025;-61
2023/12/01 04:20:38;;;;;;;38.80;21.20;;;-1.00;99.90;;;;;;7376013;19;20474;-61
2023/12/01 04:23:09;;;;;;;39.55;21.02;;;-1.00;99.90;;;;;;7376208;19;20018;-61
2023/12/01 04:25:37;;;;;;;46.05;21.83;;;-1.10;99.90;;;;;;7375216;19;20018;-61
2023/12/01 04:28:05;;;;;;;39.80;20.50;;;-1.00;99.90;;;;;;7372994;19;20111;-61
2023/12/01 04:30:31;;;;;;;40.88;21.92;;;-1.10;99.90;;;;;;7375420;19;20647;-61
2023/12/01 04:33:17;;;;;;;43.08;19.45;;;-1.10;99.90;;;;;;7373072;19;20064;-61
2023/12/01 04:35:43;;;;;;;39.55;19.73;;;-1.10;99.90;;;;;;7374519;19;20026;-61
2023/12/01 04:38:30;;;;;;;34.83;19.10;;;-1.20;99.90;;;;;;7373168;19;20014;-61
2023/12/01 04:41:16;;;;;;;37.63;18.77;;;-1.30;99.90;;;;;;7373294;19;20039;-61
2023/12/01 04:43:42;;;;;;;37.75;19.55;;;-1.30;99.90;;;;;;7373846;19;20026;-61
2023/12/01 04:46:28;;;;;;;35.67;19.52;;;-1.40;99.90;;;;;;7375188;19;20018;-61
2023/12/01 04:48:55;;;;;;;33.72;18.05;;;-1.40;99.90;;;;;;7375186;19;20022;-61
2023/12/01 04:51:21;;;;;;;36.63;18.63;;;-1.40;99.90;;;;;;7375203;19;20540;-61
2023/12/01 04:53:48;;;;;;;36.05;18.60;;;-1.50;99.90;;;;;;7374303;19;20026;-60
2023/12/01 04:56:14;;;;;;;38.55;20.25;;;-1.40;99.90;;;;;;7376992;19;20025;-61
2023/12/01 04:58:40;;;;;;;35.90;18.98;;;-1.50;99.90;;;;;;7376185;19;20498;-61
2023/12/01 05:01:10;;;;;;;36.72;19.05;;;-1.50;99.90;;;;;;7373152;19;20014;-61
2023/12/01 05:03:39;;;;;;;39.33;19.83;;;-1.60;99.90;;;;;;7371840;19;20025;-61
2023/12/01 05:06:06;;;;;;;35.13;19.27;;;-1.60;99.90;;;;;;7375231;19;20031;-61
2023/12/01 05:08:33;;;;;;;36.55;18.17;;;-1.70;99.90;;;;;;7374608;19;20035;-61
2023/12/01 05:10:59;;;;;;;40.72;19.73;;;-1.80;99.90;;;;;;7369223;19;20025;-61
2023/12/01 05:13:25;;;;;;;34.63;19.33;;;-1.80;99.90;;;;;;7374602;19;20019;-61
2023/12/01 05:15:52;;;;;;;41.40;20.55;;;-1.90;99.90;;;;;;7370250;19;20018;-61
2023/12/01 05:18:19;;;;;;;41.33;20.20;;;-1.90;99.90;;;;;;7374787;19;20478;-61
2023/12/01 05:20:45;;;;;;;38.20;19.80;;;-2.00;99.90;;;;;;7372186;19;20564;-60
2023/12/01 05:23:12;;;;;;;39.70;20.50;;;-2.10;99.90;;;;;;7372850;19;20047;-61
2023/12/01 05:25:59;;;;;;;41.65;19.27;;;-2.10;99.90;;;;;;7368884;19;20022;-60
2023/12/01 05:28:25;;;;;;;42.42;20.42;;;-2.10;99.90;;;;;;7371697;19;20022;-61
2023/12/01 05:30:52;;;;;;;38.33;19.10;;;-2.20;99.90;;;;;;7371442;19;20019;-61
2023/12/01 05:33:18;;;;;;;42.17;18.67;;;-2.20;99.90;;;;;;7374869;19;20010;-61
2023/12/01 05:35:45;;;;;;;40.67;19.45;;;-2.30;99.90;;;;;;7372540;19;20015;-60
2023/12/01 05:38:12;;;;;;;38.70;18.58;;;-2.30;99.90;;;;;;7373189;19;20023;-60
2023/12/01 05:40:39;;;;;;;46.47;20.65;;;-2.30;99.90;;;;;;7373609;19;20060;-60
2023/12/01 05:43:06;;;;;;;43.95;21.25;;;-2.30;99.90;;;;;;7370925;19;20718;-62
2023/12/01 05:45:33;;;;;;;43.40;19.73;;;-2.30;99.90;;;;;;7371086;19;20070;-63
2023/12/01 05:48:00;;;;;;;46.63;22.52;;;-2.30;99.90;;;;;;7369836;19;20919;-62
2023/12/01 05:50:28;;;;;;;45.08;22.70;;;-2.40;99.90;;;;;;7370033;19;20026;-62
2023/12/01 05:53:14;;;;;;;48.38;21.80;;;-2.40;99.90;;;;;;7372050;19;20018;-62
2023/12/01 05:55:41;;;;;;;47.90;22.70;;;-2.40;99.90;;;;;;7369032;19;20082;-63
2023/12/01 05:58:10;;;;;;;44.72;20.27;;;-2.40;99.90;;;;;;7369147;19;20015;-62
2023/12/01 06:00:56;;;;;;;48.33;21.60;;;-2.50;99.90;;;;;;7368575;19;20015;-62
2023/12/01 06:03:23;;;;;;;46.30;20.63;;;-2.50;99.90;;;;;;7371781;19;20489;-62
2023/12/01 06:05:49;;;;;;;40.97;18.35;;;-2.60;99.90;;;;;;7372518;19;20033;-62
2023/12/01 06:08:15;;;;;;;41.53;20.63;;;-2.60;99.90;;;;;;7371753;19;20282;-62
2023/12/01 06:10:42;;;;;;;42.53;20.15;;;-2.60;99.90;;;;;;7370904;19;20543;-62
2023/12/01 06:13:09;;;;;;;46.38;19.70;;;-2.60;99.90;;;;;;7373383;19;20014;-61
2023/12/01 06:15:55;;;;;;;49.03;21.52;;;-2.60;99.90;;;;;;7368838;19;20135;-62
2023/12/01 06:18:22;;;;;;;44.22;18.83;;;-2.60;99.90;;;;;;7373383;19;20034;-62
2023/12/01 06:20:49;;;;;;;47.08;21.35;;;-2.70;99.90;;;;;;7369272;19;20048;-62
2023/12/01 06:23:15;;;;;;;43.70;19.73;;;-2.70;99.90;;;;;;7371564;19;20035;-62
2023/12/01 06:25:42;;;;;;;46.22;21.67;;;-2.70;99.90;;;;;;7372147;19;20015;-63
2023/12/01 06:28:09;;;;;;;44.53;19.70;;;-2.70;99.90;;;;;;7368518;19;20015;-63
2023/12/01 06:30:35;;;;;;;44.42;18.13;;;-2.80;99.90;;;;;;7367623;19;20025;-62
2023/12/01 06:33:05;;;;;;;45.30;21.02;;;-2.80;99.90;;;;;;7372027;19;20018;-62
2023/12/01 06:35:31;;;;;;;41.20;19.35;;;-2.80;99.90;;;;;;7369956;19;20018;-62
2023/12/01 06:37:57;;;;;;;41.20;18.70;;;-2.80;99.90;;;;;;7366780;19;20014;-62
2023/12/01 06:40:24;;;;;;;42.53;19.20;;;-2.90;99.90;;;;;;7366269;19;20018;-64
2023/12/01 06:42:55;;;;;;;47.15;23.40;;;-3.00;99.90;;;;;;7365703;19;20014;-61
2023/12/01 06:45:23;;;;;;;38.50;17.27;;;-2.90;99.90;;;;;;7371014;19;20846;-61
2023/12/01 06:47:50;;;;;;;40.53;18.45;;;-3.00;99.90;;;;;;7369964;19;20026;-61
2023/12/01 06:50:18;;;;;;;41.45;18.83;;;-3.00;99.90;;;;;;7369431;19;20057;-61
2023/12/01 06:52:48;;;;;;;37.42;17.48;;;-3.00;99.90;;;;;;7370225;19;21130;-61
2023/12/01 06:55:14;;;;;;;40.17;17.85;;;-3.00;99.90;;;;;;7372667;19;20014;-61
2023/12/01 06:57:43;;;;;;;38.05;17.50;;;-3.00;99.90;;;;;;7377922;19;20078;-62
2023/12/01 07:00:21;;;;;;;41.63;18.05;;;-3.00;99.90;;;;;;7379126;19;20026;-61
2023/12/01 07:02:49;;;;;;;36.45;16.95;;;-3.10;99.90;;;;;;7379012;19;20018;-62
2023/12/01 07:05:19;;;;;;;42.42;18.55;;;-3.10;99.90;;;;;;7380807;19;20047;-61
2023/12/01 07:07:47;;;;;;;40.67;19.13;;;-3.10;99.90;;;;;;7380916;19;20067;-65
2023/12/01 07:10:15;;;;;;;42.33;19.27;;;-3.20;99.90;;;;;;7377075;19;20509;-60
2023/12/01 07:12:44;;;;;;;41.30;18.83;;;-3.20;99.90;;;;;;7379153;19;20022;-62
2023/12/01 07:15:13;;;;;;;43.15;17.98;;;-3.20;99.90;;;;;;7380084;19;20168;-61
2023/12/01 07:17:40;;;;;;;41.47;20.02;;;-3.20;99.90;;;;;;7377993;19;20018;-63
2023/12/01 07:20:15;;;;;;;41.97;18.40;;;-3.20;99.90;;;;;;7376286;19;20015;-61
2023/12/01 07:23:01;;;;;;;44.75;19.75;;;-3.10;99.90;;;;;;7375628;19;20445;-61
2023/12/01 07:25:48;;;;;;;44.28;19.50;;;-3.20;99.90;;;;;;7375095;19;20405;-61
2023/12/01 07:28:15;;;;;;;44.05;19.52;;;-3.10;99.90;;;;;;7378224;19;20597;-61
2023/12/01 07:30:42;;;;;;;44.63;20.02;;;-3.10;99.90;;;;;;7373125;19;20049;-61
2023/12/01 07:33:09;;;;;;;41.90;19.50;;;-3.10;99.90;;;;;;7377189;19;20744;-62
2023/12/01 07:35:35;;;;;;;45.20;20.10;;;-3.10;99.90;;;;;;7378282;19;20019;-61
2023/12/01 07:38:04;;;;;;;49.08;20.27;;;-3.10;99.90;;;;;;7374478;19;20018;-60
2023/12/01 07:40:32;;;;;;;43.65;20.88;;;-3.10;99.90;;;;;;7373316;19;20048;-61
2023/12/01 07:42:58;;;;;;;45.58;20.02;;;-3.10;99.90;;;;;;7376725;19;20696;-61
2023/12/01 07:45:24;;;;;;;43.22;20.33;;;-3.10;99.90;;;;;;7377518;19;20019;-61
2023/12/01 07:47:52;;;;;;;40.05;19.45;;;-3.10;99.90;;;;;;7371339;19;20018;-62
2023/12/01 07:50:19;;;;;;;43.63;18.02;;;-3.10;99.90;;;;;;7374104;19;20032;-62
2023/12/01 07:52:47;;;;;;;42.20;20.17;;;-3.10;99.90;;;;;;7374444;19;20529;-61
2023/12/01 07:55:13;;;;;;;40.55;18.58;;;-3.10;99.90;;;;;;7378540;19;20018;-61
2023/12/01 07:57:40;;;;;;;46.33;20.65;;;-3.10;99.90;;;;;;7374959;19;20022;-60
2023/12/01 08:00:29;;;;;;;37.97;17.35;;;-3.00;99.90;;;;;;7373931;19;20019;-60
2023/12/01 08:02:56;;;;;;;42.38;19.33;;;-3.00;99.90;;;;;;7374501;19;20057;-61
2023/12/01 08:05:23;;;;;;;41.72;19.65;;;-2.90;99.90;;;;;;7373471;19;20474;-64
2023/12/01 08:07:51;;;;;;;44.28;21.23;;;-2.80;99.90;;;;;;7376067;19;20054;-61
2023/12/01 08:10:21;;;;;;;40.75;19.55;;;-2.50;99.90;;;;;;7373816;19;20350;-60
2023/12/01 08:12:50;;;;;;;44.10;19.90;;;-2.50;99.90;;;;;;7376059;19;20022;-61
2023/12/01 08:15:17;;;;;;;42.70;20.85;;;-2.40;99.90;;;;;;7371437;19;21263;-62
2023/12/01 08:17:44;;;;;;;44.47;20.95;;;-2.30;99.90;;;;;;7375440;19;20010;-62
2023/12/01 08:20:18;;;;;;;39.45;18.95;;;-2.20;99.90;;;;;;7372013;19;20074;-61
2023/12/01 08:22:46;;;;;;;36.90;18.52;;;-2.10;99.90;;;;;;7373764;19;20025;-63
2023/12/01 08:25:12;;;;;;;34.42;18.02;;;-2.10;99.90;;;;;;7377337;19;20078;-61
2023/12/01 08:27:39;;;;;;;35.88;19.83;;;-2.00;99.90;;;;;;7369279;19;20015;-61
2023/12/01 08:30:07;;;;;;;36.95;18.40;;;-2.00;99.90;;;;;;7373002;19;20526;-61
2023/12/01 08:32:33;;;;;;;42.83;20.42;;;-2.00;99.90;;;;;;7374157;19;20792;-59
2023/12/01 08:35:00;;;;;;;34.03;18.73;;;-1.90;99.90;;;;;;7375474;19;20701;-60
2023/12/01 08:37:26;;;;;;;37.88;20.20;;;-1.50;99.90;;;;;;7374718;19;20022;-60
2023/12/01 08:39:53;;;;;;;35.03;18.02;;;-1.20;99.90;;;;;;7373579;19;20592;-60
2023/12/01 08:42:19;;;;;;;37.25;18.98;;;-1.20;99.90;;;;;;7374349;19;20025;-60
2023/12/01 08:44:45;;;;;;;35.25;17.17;;;-1.10;99.90;;;;;;7371719;19;20019;-60
2023/12/01 08:47:13;;;;;;;33.55;18.23;;;-0.70;99.90;;;;;;7371959;19;21119;-61
2023/12/01 08:49:40;;;;;;;32.95;17.33;;;-0.50;99.90;;;;;;7372477;19;20018;-62
2023/12/01 08:52:07;;;;;;;38.13;19.25;;;-0.50;99.90;;;;;;7365523;19;20014;-61
2023/12/01 08:54:36;;;;;;;33.10;17.42;;;-0.60;99.90;;;;;;7375923;19;20018;-60
2023/12/01 08:57:03;;;;;;;35.50;17.83;;;-0.60;99.90;;;;;;7372154;19;20481;-61
2023/12/01 08:59:29;;;;;;;29.55;17.23;;;-0.50;99.90;;;;;;7372189;19;20775;-61
2023/12/01 09:01:55;;;;;;;33.05;17.92;;;-0.30;99.90;;;;;;7370021;19;20018;-61
2023/12/01 09:04:22;;;;;;;34.38;18.88;;;-0.30;99.90;;;;;;7372343;19;20023;-62
2023/12/01 09:06:48;;;;;;;29.70;16.45;;;-0.40;99.90;;;;;;7374503;19;20541;-62
2023/12/01 09:09:14;;;;;;;33.17;17.17;;;-0.30;99.90;;;;;;7371324;19;20541;-61
2023/12/01 09:11:40;;;;;;;28.73;18.15;;;-0.40;99.90;;;;;;7369240;19;20067;-61
2023/12/01 09:14:06;;;;;;;29.75;17.65;;;-0.50;99.90;;;;;;7371046;19;20019;-62
2023/12/01 09:16:32;;;;;;;29.85;17.13;;;-0.60;99.90;;;;;;7374054;19;20018;-62
2023/12/01 09:18:59;;;;;;;31.23;16.80;;;-0.50;99.90;;;;;;7368999;19;20420;-62
2023/12/01 09:21:25;;;;;;;27.35;15.38;;;-0.50;99.90;;;;;;7373373;19;20029;-62
2023/12/01 09:23:52;;;;;;;25.10;14.85;;;-0.60;99.90;;;;;;7374446;19;20040;-62
2023/12/01 09:26:19;;;;;;;26.83;15.60;;;-0.60;99.90;;;;;;7374563;19;20019;-62
2023/12/01 09:29:05;;;;;;;29.30;15.68;;;-0.50;99.90;;;;;;7373144;19;20378;-62
2023/12/01 09:31:32;;;;;;;28.90;14.68;;;-0.40;99.90;;;;;;7371248;19;20118;-62
2023/12/01 09:33:58;;;;;;;26.85;15.57;;;-0.30;99.90;;;;;;7373989;19;20029;-62
2023/12/01 09:36:26;;;;;;;26.17;15.50;;;-0.20;99.90;;;;;;7376364;19;20758;-62
2023/12/01 09:38:52;;;;;;;26.60;15.48;;;-0.20;99.90;;;;;;7376752;19;20015;-62
2023/12/01 09:41:19;;;;;;;24.52;14.52;;;-0.20;99.90;;;;;;7373286;19;20018;-62
2023/12/01 09:43:47;;;;;;;24.67;15.02;;;-0.20;99.90;;;;;;7375202;19;20111;-64
2023/12/01 09:46:14;;;;;;;25.95;14.45;;;-0.30;99.90;;;;;;7373986;19;20019;-62
2023/12/01 09:48:46;;;;;;;30.73;17.85;;;-0.30;99.90;;;;;;7372940;19;20035;-62
2023/12/01 09:51:13;;;;;;;36.75;22.58;;;-0.20;99.90;;;;;;7370058;19;20478;-65
2023/12/01 09:53:40;;;;;;;22.30;13.93;;;-0.10;99.90;;;;;;7376061;19;20022;-63
2023/12/01 09:56:06;;;;;;;23.35;15.02;;;-0.10;99.90;;;;;;7371330;19;20033;-62
2023/12/01 09:58:35;;;;;;;20.10;12.65;;;0.20;99.90;;;;;;7371326;19;20018;-61
2023/12/01 10:01:02;;;;;;;22.75;14.15;;;0.00;99.90;;;;;;7369065;19;20501;-61
2023/12/01 10:03:28;;;;;;;23.00;14.35;;;0.10;99.90;;;;;;7374106;19;20023;-61
2023/12/01 10:06:01;;;;;;;22.45;14.10;;;0.00;99.90;;;;;;7370700;19;20493;-62
2023/12/01 10:08:27;;;;;;;21.15;14.57;;;0.20;99.90;;;;;;7373746;19;20018;-62
2023/12/01 10:11:21;;;;;;;21.52;14.88;;;0.60;99.90;;;;;;7370888;19;20026;-62
2023/12/01 10:13:49;;;;;;;21.13;13.18;;;0.90;99.90;;;;;;7372398;19;20700;-62
2023/12/01 10:16:17;;;;;;;22.80;14.00;;;1.20;99.90;;;;;;7372305;19;20019;-62
2023/12/01 10:19:04;;;;;;;21.90;15.18;;;1.70;99.90;;;;;;7373083;19;20014;-62
2023/12/01 10:22:00;;;;;;;21.60;14.20;;;1.80;99.90;;;;;;7373364;19;20018;-62
2023/12/01 10:24:26;;;;;;;19.25;12.10;;;1.90;99.90;;;;;;7369057;19;20031;-62
2023/12/01 10:26:54;;;;;;;17.73;11.52;;;1.90;99.90;;;;;;7372518;19;20031;-63
2023/12/01 10:29:24;;;;;;;20.92;12.85;;;1.60;99.90;;;;;;7371834;19;20015;-62
2023/12/01 10:31:53;;;;;;;24.40;16.10;;;1.30;99.90;;;;;;7378513;19;20022;-64
2023/12/01 10:34:19;;;;;;;18.52;11.63;;;1.30;99.90;;;;;;7383690;19;20018;-62
2023/12/01 10:36:47;;;;;;;20.60;14.50;;;1.40;99.90;;;;;;7385944;19;20049;-62
2023/12/01 10:39:33;;;;;;;17.98;12.43;;;1.30;99.90;;;;;;7384736;19;21202;-61
2023/12/01 10:42:00;;;;;;;16.83;10.90;;;1.30;99.90;;;;;;7383992;19;20056;-61
2023/12/01 10:44:27;;;;;;;16.40;11.68;;;1.50;99.90;;;;;;7386610;19;20019;-60
2023/12/01 10:46:55;;;;;;;19.65;12.38;;;1.50;99.90;;;;;;7382512;19;20797;-60
2023/12/01 10:49:22;;;;;;;17.25;11.00;;;2.80;99.90;;;;;;7386293;19;20014;-61
2023/12/01 10:51:52;;;;;;;15.95;11.23;;;3.80;99.90;;;;;;7383914;19;20380;-60
2023/12/01 10:54:23;;;;;;;17.33;11.65;;;4.30;99.90;;;;;;7385132;19;20026;-62
2023/12/01 10:57:27;;;;;;;14.40;10.60;;;4.40;99.90;;;;;;7382222;19;20901;-62
2023/12/01 10:59:59;;;;;;;16.83;11.40;;;4.10;99.90;;;;;;7385947;19;20022;-62
2023/12/01 11:02:25;;;;;;;;;;;4.00;99.90;;;;;;7386178;19;20048;-62
2023/12/01 11:04:51;;;;;;;15.80;11.05;;;3.80;99.90;;;;;;7385823;19;19918;-60
2023/12/01 11:07:36;;;;;;;16.60;11.23;;;3.20;99.90;;;;;;7381618;19;20038;-59
2023/12/01 11:10:09;;;;;;;16.83;12.10;;;3.70;99.90;;;;;;7382838;19;20014;-60
2023/12/01 11:13:25;;;;;;;15.45;10.52;;;3.90;99.90;;;;;;7384242;19;20022;-61
2023/12/01 11:15:53;;;;;;;16.27;11.43;;;3.80;99.90;;;;;;7379971;19;20135;-63
2023/12/01 11:18:43;;;;;;;18.38;11.77;;;3.50;99.90;;;;;;7381330;19;20022;-60
2023/12/01 11:21:10;;;;;;;15.73;11.63;;;3.20;99.90;;;;;;7384479;19;20018;-60
2023/12/01 11:23:36;;;;;;;14.95;10.98;;;2.60;99.90;;;;;;7382401;19;20398;-59
2023/12/01 11:26:07;;;;;;;16.77;11.30;;;2.30;99.90;;;;;;7383820;19;20018;-59
2023/12/01 11:28:45;;;;;;;16.47;11.40;;;2.10;99.90;;;;;;7387597;19;20059;-58
2023/12/01 11:31:21;;;;;;;16.45;11.32;;;1.90;99.90;;;;;;7384029;19;20711;-60
2023/12/01 11:33:52;;;;;;;18.52;13.13;;;2.00;99.90;;;;;;7384748;19;20018;-60
2023/12/01 11:36:32;;;;;;;15.40;11.00;;;2.60;99.90;;;;;;7382824;19;20015;-60
2023/12/01 11:41:46;;;;;;;15.93;10.63;;;3.60;99.90;;;;;;7386006;19;20018;-59
2023/12/01 11:44:26;;;;;;;17.15;12.23;;;4.30;99.90;;;;;;7376195;19;20493;-58
2023/12/01 11:46:57;;;;;;;14.88;10.55;;;4.40;99.90;;;;;;7379743;19;20015;-60
2023/12/01 11:49:32;;;;;;;16.02;10.65;;;3.90;99.90;;;;;;7380589;19;20848;-59
2023/12/01 11:52:19;;;;;;;15.70;12.02;;;3.50;99.90;;;;;;7375483;19;20038;-60
2023/12/01 11:54:49;;;;;;;15.80;11.38;;;2.70;99.90;;;;;;7379570;19;20026;-61
2023/12/01 11:57:17;;;;;;;18.73;11.68;;;2.40;99.90;;;;;;7379131;19;20019;-60
2023/12/01 11:59:44;;;;;;;16.45;11.93;;;2.10;99.90;;;;;;7379527;19;20097;-60
2023/12/01 12:02:14;;;;;;;18.92;11.70;;;1.80;99.90;;;;;;7379616;19;20578;-62
2023/12/01 12:04:42;;;;;;;18.13;11.70;;;1.50;99.90;;;;;;7376361;19;20027;-62
2023/12/01 12:07:28;;;;;;;17.38;11.50;;;1.40;99.90;;;;;;7376314;19;20577;-62
2023/12/01 12:09:56;;;;;;;16.65;11.48;;;1.20;99.90;;;;;;7374962;19;20766;-62
2023/12/01 12:12:23;;;;;;;18.88;12.95;;;1.30;99.90;;;;;;7378797;19;20025;-63
2023/12/01 12:14:51;;;;;;;18.55;12.68;;;1.10;99.90;;;;;;7375854;19;20102;-59
2023/12/01 12:17:21;;;;;;;20.02;12.95;;;0.90;99.90;;;;;;7376543;19;20949;-60
2023/12/01 12:19:48;;;;;;;21.38;13.40;;;0.80;99.90;;;;;;7378053;19;20601;-62
2023/12/01 12:22:14;;;;;;;20.30;13.45;;;0.80;99.90;;;;;;7377990;19;20011;-62
2023/12/01 12:24:46;;;;;;;20.13;13.93;;;0.60;99.90;;;;;;7376681;19;20505;-62
2023/12/01 12:27:12;;;;;;;18.65;11.90;;;0.50;99.90;;;;;;7376020;19;20014;-63
2023/12/01 12:29:38;;;;;;;21.50;14.07;;;0.50;99.90;;;;;;7378332;19;21438;-60
2023/12/01 12:32:06;;;;;;;23.17;13.52;;;0.50;99.90;;;;;;7372119;19;20025;-59
2023/12/01 12:34:33;;;;;;;21.20;13.60;;;0.50;99.90;;;;;;7378261;19;20785;-60
2023/12/01 12:36:59;;;;;;;22.73;13.98;;;0.50;99.90;;;;;;7375461;19;20784;-59
2023/12/01 12:39:27;;;;;;;21.50;14.15;;;0.50;99.90;;;;;;7377318;19;20018;-60
2023/12/01 12:41:57;;;;;;;20.60;14.15;;;0.50;99.90;;;;;;7375726;19;20018;-60
2023/12/01 12:44:23;;;;;;;21.98;13.38;;;0.50;99.90;;;;;;7375744;19;20054;-60